Ribadesella, Spain
Current Conditions -  °F | °C
As of 10:30 AM on Saturday 20 Dec 2014 (Local Time) from LEAS Reporting Station
Light Rain Light Rain  
Wind Chill: 50°   Ceiling: 1300
Heat Index: 50°   Visibility: 4mi
Dew Point: 50°   Wind: 5mph
Humidity: 100%   Direction: 240°WSW
Pressure: 30.56"   Gusts: NA
Location:  43.46°N, 5.06°W
Report Text: LEAS 200930Z 24004KT 6000 -DZRA SCT006 BKN013 10/10 Q1035 NOSIG
Loading
Personal Weather Stations






























Interactive Weather Map New forecast layout! Learn more

10-Day Weather Forecast

Advertisements
Track Severe Weather on mobile